createdAt,value
2018-09-08T00:00:53.195Z,88.80
2018-09-08T00:03:42.446Z,89.70
2018-09-08T00:06:11.404Z,89.40
2018-09-08T00:08:41.149Z,89.00
2018-09-08T00:11:10.779Z,88.90
2018-09-08T00:13:56.048Z,88.90
2018-09-08T00:16:30.251Z,88.70
2018-09-08T00:19:17.401Z,88.60
2018-09-08T00:21:51.760Z,88.30
2018-09-08T00:24:37.793Z,88.70
2018-09-08T00:27:06.120Z,89.70
2018-09-08T00:29:55.478Z,89.90
2018-09-08T00:32:40.162Z,89.70
2018-09-08T00:35:09.256Z,89.80
2018-09-08T00:37:38.271Z,90.00
2018-09-08T00:40:07.248Z,90.00
2018-09-08T00:42:36.372Z,90.10
2018-09-08T00:45:06.618Z,90.30
2018-09-08T00:47:36.597Z,90.50
2018-09-08T00:50:29.470Z,90.50
2018-09-08T00:52:59.093Z,90.60
2018-09-08T00:55:29.505Z,90.70
2018-09-08T00:57:58.769Z,90.70
2018-09-08T01:00:28.441Z,90.70
2018-09-08T01:02:57.517Z,90.60
2018-09-08T01:05:27.507Z,90.70
2018-09-08T01:07:57.376Z,90.50
2018-09-08T01:10:46.748Z,90.50
2018-09-08T01:13:16.418Z,90.20
2018-09-08T01:16:02.025Z,90.10
2018-09-08T01:18:36.405Z,90.30
2018-09-08T01:21:17.586Z,90.30
2018-09-08T01:23:54.336Z,90.30
2018-09-08T01:26:25.012Z,90.60
2018-09-08T01:28:54.286Z,90.50
2018-09-08T01:31:43.400Z,90.50
2018-09-08T01:34:13.253Z,90.60
2018-09-08T01:36:59.741Z,90.90
2018-09-08T01:39:29.412Z,91.00
2018-09-08T01:42:09.442Z,91.10
2018-09-08T01:44:38.547Z,91.20
2018-09-08T01:47:27.705Z,91.30
2018-09-08T01:49:58.105Z,91.50
2018-09-08T01:52:37.098Z,90.70
2018-09-08T01:55:06.897Z,90.70
2018-09-08T01:57:51.180Z,90.60
2018-09-08T02:00:20.983Z,90.60
2018-09-08T02:05:40.475Z,90.60
2018-09-08T02:08:21.877Z,90.70
2018-09-08T02:10:51.487Z,90.60
2018-09-08T02:16:11.062Z,90.60
2018-09-08T02:18:57.547Z,90.60
2018-09-08T02:21:26.984Z,90.80
2018-09-08T02:24:05.587Z,90.60
2018-09-08T02:26:35.607Z,90.50
2018-09-08T02:29:18.707Z,90.50
2018-09-08T02:31:48.205Z,90.60
2018-09-08T02:37:07.377Z,90.70
2018-09-08T02:39:48.939Z,90.70
2018-09-08T02:42:18.780Z,90.60
2018-09-08T02:45:02.213Z,90.40
2018-09-08T02:47:31.885Z,90.50
2018-09-08T02:52:50.902Z,91.20
2018-09-08T02:58:09.360Z,91.30
2018-09-08T03:00:52.540Z,90.90
2018-09-08T03:03:20.520Z,90.80
2018-09-08T03:06:08.024Z,90.60
2018-09-08T03:08:36.095Z,90.50
2018-09-08T03:11:15.460Z,90.40
2018-09-08T03:13:43.339Z,90.20
2018-09-08T03:19:01.428Z,89.70
2018-09-08T03:21:45.692Z,89.20
2018-09-08T03:24:13.416Z,88.50
2018-09-08T03:27:04.915Z,88.20
2018-09-08T03:29:32.667Z,88.60
2018-09-08T03:32:13.792Z,88.00
2018-09-08T03:34:41.682Z,87.70
2018-09-08T03:39:59.899Z,89.20
2018-09-08T03:42:42.663Z,89.80
2018-09-08T03:45:10.663Z,89.40
2018-09-08T03:50:28.981Z,89.40
2018-09-08T03:53:18.565Z,89.70
2018-09-08T03:55:46.327Z,89.30
2018-09-08T03:58:26.472Z,88.50
2018-09-08T04:00:54.502Z,88.10
2018-09-08T04:03:40.876Z,87.50
2018-09-08T04:06:10.596Z,87.60
2018-09-08T04:11:30.258Z,88.50
2018-09-08T04:14:11.316Z,88.60
2018-09-08T04:16:40.736Z,88.80
2018-09-08T04:19:30.704Z,89.40
2018-09-08T04:22:00.604Z,90.10
2018-09-08T04:24:40.322Z,90.50
2018-09-08T04:27:09.574Z,90.70
2018-09-08T04:29:53.342Z,90.90
2018-09-08T04:32:23.212Z,91.00
2018-09-08T04:37:42.390Z,91.20
2018-09-08T04:40:28.889Z,91.30
2018-09-08T04:42:58.668Z,91.40
2018-09-08T04:48:21.768Z,91.80
2018-09-08T04:51:00.091Z,91.40
2018-09-08T04:53:29.827Z,90.90
2018-09-08T04:56:07.028Z,90.30
2018-09-08T04:58:36.371Z,89.80
2018-09-08T05:03:56.073Z,87.90
2018-09-08T05:06:36.501Z,87.70
2018-09-08T05:09:10.076Z,87.30
2018-09-08T05:11:56.264Z,86.50
2018-09-08T05:14:25.444Z,85.80
2018-09-08T05:17:11.135Z,86.30
2018-09-08T05:19:41.053Z,85.00
2018-09-08T05:22:20.648Z,85.40
2018-09-08T05:24:51.062Z,85.10
2018-09-08T05:27:40.035Z,84.80
2018-09-08T05:30:09.674Z,85.30
2018-09-08T05:32:49.270Z,86.30
2018-09-08T05:35:19.450Z,85.70
2018-09-08T05:38:01.700Z,86.30
2018-09-08T05:40:30.746Z,85.90
2018-09-08T06:00:17.707Z,85.50
2018-09-08T06:02:47.547Z,85.70
2018-09-08T06:05:17.409Z,86.50
2018-09-08T06:07:47.390Z,87.30
2018-09-08T06:10:17.025Z,87.30
2018-09-08T06:12:46.872Z,87.00
2018-09-08T06:15:16.610Z,87.40
2018-09-08T06:17:46.090Z,85.80
2018-09-08T06:20:15.824Z,85.60
2018-09-08T06:22:45.564Z,85.40
2018-09-08T06:25:20.942Z,85.20
2018-09-08T06:27:50.752Z,85.50
2018-09-08T06:30:30.527Z,84.90
2018-09-08T06:33:00.266Z,84.60
2018-09-08T06:35:41.673Z,84.90
2018-09-08T06:38:11.882Z,85.00
2018-09-08T06:43:32.838Z,84.10
2018-09-08T06:46:18.212Z,83.80
2018-09-08T06:48:48.154Z,83.20
2018-09-08T06:51:35.360Z,83.30
2018-09-08T06:54:05.419Z,83.00
2018-09-08T06:56:50.991Z,83.20
2018-09-08T06:59:20.157Z,82.70
2018-09-08T07:02:04.638Z,82.50
2018-09-08T07:04:33.817Z,82.10
2018-09-08T07:07:12.321Z,81.50
2018-09-08T07:09:42.902Z,81.50
2018-09-08T07:12:23.056Z,81.70
2018-09-08T07:14:52.676Z,81.30
2018-09-08T07:17:39.484Z,80.80
2018-09-08T07:20:08.804Z,80.80
2018-09-08T07:22:54.667Z,80.20
2018-09-08T07:25:24.415Z,80.00
2018-09-08T07:28:15.498Z,79.30
2018-09-08T07:30:45.477Z,79.40
2018-09-08T07:33:23.718Z,79.40
2018-09-08T07:35:53.268Z,79.60
2018-09-08T07:38:36.524Z,77.30
2018-09-08T07:41:06.496Z,78.40
2018-09-08T07:43:52.026Z,77.30
2018-09-08T07:46:22.856Z,77.10
2018-09-08T07:49:06.622Z,76.30
2018-09-08T07:51:37.343Z,74.70
2018-09-08T07:54:21.118Z,73.40
2018-09-08T07:56:50.715Z,72.00
2018-09-08T07:59:42.812Z,71.10
2018-09-08T08:02:12.841Z,70.10
2018-09-08T08:04:51.908Z,69.50
2018-09-08T08:07:21.899Z,66.00
2018-09-08T08:10:09.623Z,64.40
2018-09-08T08:12:39.563Z,62.90
2018-09-08T08:15:28.039Z,59.90
2018-09-08T08:17:57.630Z,59.50
2018-09-08T08:20:34.676Z,59.70
2018-09-08T08:23:04.577Z,59.20
2018-09-08T08:25:53.179Z,58.20
2018-09-08T08:28:22.989Z,58.70
2018-09-08T08:31:04.692Z,58.80
2018-09-08T08:33:33.912Z,58.90
2018-09-08T08:38:54.444Z,57.90
2018-09-08T08:41:33.869Z,57.70
2018-09-08T08:44:03.600Z,58.10
2018-09-08T08:49:24.110Z,56.20
2018-09-08T08:52:04.383Z,56.20
2018-09-08T08:54:58.025Z,54.90
2018-09-08T08:57:28.393Z,55.10
2018-09-08T08:59:58.173Z,55.20
2018-09-08T09:02:35.003Z,55.70
2018-09-08T09:05:04.683Z,56.20
2018-09-08T09:07:53.395Z,57.90
2018-09-08T09:10:23.265Z,57.50
2018-09-08T09:13:01.705Z,57.10
2018-09-08T09:15:31.915Z,56.70
2018-09-08T09:18:14.450Z,55.20
2018-09-08T09:29:24.682Z,55.30
2018-09-08T09:31:54.912Z,56.50
2018-09-08T09:34:24.790Z,56.20
2018-09-08T09:36:54.830Z,55.20
2018-09-08T09:39:24.751Z,56.00
2018-09-08T09:41:54.802Z,55.20
2018-09-08T09:44:30.004Z,55.60
2018-09-08T09:46:59.644Z,55.80
2018-09-08T09:49:47.880Z,55.10
2018-09-08T09:52:17.800Z,56.30
2018-09-08T09:54:57.111Z,56.60
2018-09-08T09:57:26.871Z,57.90
2018-09-08T10:00:10.497Z,55.60
2018-09-08T10:02:46.092Z,52.60
2018-09-08T10:05:33.351Z,50.20
2018-09-08T10:08:03.241Z,50.30
2018-09-08T10:10:40.561Z,47.80
2018-09-08T10:13:10.191Z,47.90
2018-09-08T10:15:55.413Z,49.10
2018-09-08T10:18:25.412Z,50.00
2018-09-08T10:21:14.763Z,51.10
2018-09-08T10:24:04.345Z,49.50
2018-09-08T10:26:31.608Z,48.90
2018-09-08T10:29:01.792Z,50.00
2018-09-08T10:31:41.457Z,48.70
2018-09-08T10:34:11.987Z,48.20
2018-09-08T10:37:00.164Z,48.00
2018-09-08T10:39:31.636Z,47.50
2018-09-08T10:42:08.965Z,48.70
2018-09-08T10:44:38.784Z,48.30
2018-09-08T10:47:22.099Z,47.90
2018-09-08T10:49:51.758Z,47.40
2018-09-08T10:52:38.344Z,47.60
2018-09-08T10:55:08.194Z,46.50
2018-09-08T10:57:50.685Z,46.50
2018-09-08T11:00:20.536Z,45.30
2018-09-08T11:03:06.141Z,47.20
2018-09-08T11:05:35.810Z,45.70
2018-09-08T11:08:19.948Z,45.00
2018-09-08T11:10:49.660Z,45.10
2018-09-08T11:16:11.591Z,46.50
2018-09-08T11:18:58.552Z,45.20
2018-09-08T11:21:28.432Z,46.90
2018-09-08T11:24:13.716Z,44.30
2018-09-08T11:26:43.547Z,44.00
2018-09-08T11:29:25.241Z,43.50
2018-09-08T11:31:55.560Z,44.60
2018-09-08T11:34:34.965Z,45.80
2018-09-08T11:37:05.885Z,45.80
2018-09-08T11:39:48.545Z,47.50
2018-09-08T11:42:18.831Z,46.90
2018-09-08T11:45:01.962Z,47.80
2018-09-08T11:47:32.272Z,49.00
2018-09-08T11:50:17.516Z,49.30
2018-09-08T11:52:47.282Z,48.50
2018-09-08T11:55:31.263Z,46.60
2018-09-08T11:58:01.897Z,45.10
2018-09-08T12:00:53.504Z,43.60
2018-09-08T12:03:23.823Z,42.80
2018-09-08T12:06:09.462Z,42.70
2018-09-08T12:08:40.562Z,42.50
2018-09-08T12:11:15.995Z,42.60
2018-09-08T12:13:45.818Z,44.20
2018-09-08T12:16:30.473Z,44.60
2018-09-08T12:19:00.383Z,44.80
2018-09-08T12:24:24.485Z,46.60
2018-09-08T12:27:08.019Z,46.60
2018-09-08T12:29:37.729Z,46.50
2018-09-08T12:32:19.519Z,44.70
2018-09-08T12:34:49.652Z,44.70
2018-09-08T12:37:34.997Z,43.80
2018-09-08T12:40:05.047Z,41.60
2018-09-08T12:42:52.044Z,41.00
2018-09-08T12:45:22.094Z,42.60
2018-09-08T12:47:57.903Z,42.40
2018-09-08T12:50:27.772Z,43.80
2018-09-08T12:53:11.395Z,43.80
2018-09-08T12:55:41.198Z,45.00
2018-09-08T12:58:26.485Z,44.70
2018-09-08T13:00:59.478Z,45.20
2018-09-08T13:03:41.326Z,46.00
2018-09-08T13:06:10.918Z,44.70
2018-09-08T13:08:54.683Z,42.90
2018-09-08T13:11:24.625Z,42.50
2018-09-08T13:14:09.895Z,39.80
2018-09-08T13:16:40.324Z,38.40
2018-09-08T13:19:24.014Z,36.10
2018-09-08T13:21:54.084Z,35.60
2018-09-08T13:24:43.488Z,34.40
2018-09-08T13:27:14.078Z,33.90
2018-09-08T13:30:01.084Z,32.30
2018-09-08T13:32:31.095Z,32.50
2018-09-08T13:35:17.066Z,32.60
2018-09-08T13:37:47.777Z,31.80
2018-09-08T13:40:23.754Z,31.10
2018-09-08T13:42:53.615Z,31.50
2018-09-08T13:45:36.113Z,29.80
2018-09-08T13:48:06.554Z,29.90
2018-09-08T13:50:51.482Z,29.80
2018-09-08T13:53:21.922Z,28.90
2018-09-08T13:56:13.434Z,28.80
2018-09-08T13:58:44.293Z,29.50
2018-09-08T14:01:27.823Z,28.80
2018-09-08T14:03:59.164Z,29.10
2018-09-08T14:06:41.880Z,28.90
2018-09-08T14:09:11.831Z,28.10
2018-09-08T14:11:51.314Z,28.60
2018-09-08T14:14:23.583Z,28.00
2018-09-08T14:17:12.656Z,28.80
2018-09-08T14:19:47.737Z,29.10
2018-09-08T14:22:30.511Z,30.20
2018-09-08T14:25:12.773Z,31.80
2018-09-08T14:27:43.128Z,33.90
2018-09-08T14:30:13.371Z,34.60
2018-09-08T14:33:00.544Z,35.10
2018-09-08T14:35:31.300Z,34.50
2018-09-08T14:38:09.551Z,36.00
2018-09-08T14:40:39.794Z,36.70
2018-09-08T14:43:25.080Z,37.60
2018-09-08T14:45:54.789Z,35.50
2018-09-08T14:48:42.961Z,35.30
2018-09-08T14:51:13.812Z,35.20
2018-09-08T14:53:49.738Z,35.50
2018-09-08T14:56:20.361Z,35.70
2018-09-08T14:59:02.278Z,36.70
2018-09-08T15:04:35.928Z,38.60
2018-09-08T15:07:20.223Z,39.70
2018-09-08T15:09:55.077Z,38.90
2018-09-08T15:12:25.196Z,37.90
2018-09-08T15:14:55.356Z,36.60
2018-09-08T15:17:25.046Z,38.90
2018-09-08T15:20:01.459Z,39.10
2018-09-08T15:22:37.320Z,40.50
2018-09-08T15:25:15.394Z,41.10
2018-09-08T15:27:44.043Z,42.30
2018-09-08T15:44:37.435Z,47.50
2018-09-08T15:47:06.855Z,48.30
2018-09-08T15:49:43.131Z,49.30
2018-09-08T15:52:12.090Z,49.70
2018-09-08T15:54:41.301Z,51.10
2018-09-08T15:57:10.466Z,52.10
2018-09-08T15:59:39.731Z,52.50
2018-09-08T16:02:09.123Z,53.10
2018-09-08T16:04:38.334Z,53.50
2018-09-08T16:07:07.824Z,54.10
2018-09-08T16:09:36.964Z,54.60
2018-09-08T16:12:06.276Z,55.00
2018-09-08T16:14:35.451Z,55.50
2018-09-08T16:17:04.658Z,55.70
2018-09-08T16:19:33.853Z,56.10
2018-09-08T16:22:03.041Z,56.40
2018-09-08T16:24:32.206Z,56.90
2018-09-08T16:27:01.326Z,57.60
2018-09-08T16:29:30.601Z,58.20
2018-09-08T16:31:59.876Z,58.80
2018-09-08T16:34:29.139Z,59.30
2018-09-08T16:36:58.325Z,59.90
2018-09-08T16:39:27.527Z,60.90
2018-09-08T16:41:56.741Z,61.80
2018-09-08T16:44:25.992Z,63.30
2018-09-08T16:46:55.255Z,64.20
2018-09-08T16:49:24.535Z,65.30
2018-09-08T16:51:53.767Z,66.50
2018-09-08T16:54:22.914Z,68.00
2018-09-08T16:56:52.060Z,69.20
2018-09-08T16:59:21.296Z,70.00
2018-09-08T17:01:50.377Z,70.80
2018-09-08T17:04:19.536Z,71.10
2018-09-08T17:06:48.899Z,72.40
2018-09-08T17:09:18.096Z,73.70
2018-09-08T17:11:47.280Z,75.00
2018-09-08T17:14:16.436Z,76.20
2018-09-08T17:16:45.573Z,76.70
2018-09-08T17:19:14.663Z,77.20
2018-09-08T17:21:43.853Z,77.60
2018-09-08T17:24:13.154Z,78.00
2018-09-08T17:26:42.505Z,79.20
2018-09-08T17:29:11.725Z,80.50
2018-09-08T17:31:40.920Z,81.00
2018-09-08T17:34:10.115Z,81.80
2018-09-08T17:36:39.311Z,81.60
2018-09-08T17:39:11.493Z,81.70
2018-09-08T17:41:40.896Z,82.50
2018-09-08T17:44:10.298Z,83.00
2018-09-08T17:46:39.459Z,83.30
2018-09-08T17:49:08.831Z,83.40
2018-09-08T17:51:38.071Z,84.60
2018-09-08T17:54:07.333Z,84.20
2018-09-08T17:56:36.476Z,85.00
2018-09-08T17:59:05.675Z,84.70
2018-09-08T18:01:34.826Z,84.80
2018-09-08T18:04:04.016Z,84.80
2018-09-08T18:06:33.225Z,85.30
2018-09-08T18:09:02.385Z,85.40
2018-09-08T18:11:31.528Z,85.90
2018-09-08T18:14:00.794Z,86.40
2018-09-08T18:16:29.991Z,86.60
2018-09-08T18:18:59.210Z,87.30
2018-09-08T18:21:28.385Z,88.00
2018-09-08T18:23:57.611Z,88.50
2018-09-08T18:26:26.829Z,88.70
2018-09-08T18:28:56.038Z,89.00
2018-09-08T18:31:25.118Z,88.90
2018-09-08T18:33:54.375Z,89.50
2018-09-08T18:36:25.176Z,88.90
2018-09-08T18:38:54.395Z,88.70
2018-09-08T18:41:23.506Z,89.10
2018-09-08T18:43:52.759Z,89.20
2018-09-08T18:46:21.994Z,89.60
2018-09-08T18:48:51.254Z,90.00
2018-09-08T18:51:20.531Z,90.10
2018-09-08T18:53:49.892Z,90.30
2018-09-08T18:56:19.167Z,90.40
2018-09-08T18:58:48.410Z,90.40
2018-09-08T19:01:23.185Z,90.70
2018-09-08T19:03:52.554Z,90.80
2018-09-08T19:06:21.819Z,90.90
2018-09-08T19:08:50.875Z,90.90
2018-09-08T19:11:20.015Z,91.00
2018-09-08T19:13:49.135Z,91.00
2018-09-08T19:16:18.396Z,91.10
2018-09-08T19:18:47.709Z,91.10
2018-09-08T19:21:16.743Z,91.40
2018-09-08T19:23:45.957Z,91.10
2018-09-08T19:26:15.088Z,91.20
2018-09-08T19:28:45.787Z,91.20
2018-09-08T19:31:14.949Z,91.30
2018-09-08T19:33:44.178Z,91.40
2018-09-08T19:36:13.459Z,91.40
2018-09-08T19:38:42.753Z,91.50
2018-09-08T19:41:11.812Z,91.60
2018-09-08T19:43:40.937Z,91.70
2018-09-08T19:46:15.150Z,91.80
2018-09-08T19:48:44.262Z,91.80
2018-09-08T19:51:13.489Z,91.90
2018-09-08T19:53:47.872Z,92.00
2018-09-08T19:56:17.084Z,92.10
2018-09-08T19:58:51.354Z,92.10
2018-09-08T20:01:20.550Z,92.20
2018-09-08T20:03:49.707Z,92.00
2018-09-08T20:06:18.944Z,92.30
2018-09-08T20:08:48.158Z,92.40
2018-09-08T20:11:17.313Z,92.50
2018-09-08T20:13:46.581Z,92.90
2018-09-08T20:16:15.754Z,92.50
2018-09-08T20:18:44.970Z,92.60
2018-09-08T20:21:14.189Z,92.60
2018-09-08T20:23:43.334Z,92.70
2018-09-08T20:26:12.576Z,92.70
2018-09-08T20:28:41.771Z,92.70
2018-09-08T20:31:10.926Z,92.80
2018-09-08T20:33:47.523Z,92.80
2018-09-08T20:36:16.779Z,92.80
2018-09-08T20:38:46.017Z,92.70
2018-09-08T20:41:15.194Z,92.80
2018-09-08T20:43:44.490Z,93.00
2018-09-08T20:46:13.682Z,93.10
2018-09-08T20:48:42.892Z,93.00
2018-09-08T20:51:12.051Z,93.30
2018-09-08T20:53:41.310Z,92.90
2018-09-08T20:56:10.406Z,92.80
2018-09-08T20:58:39.573Z,93.30
2018-09-08T21:01:08.755Z,93.20
2018-09-08T21:03:37.841Z,93.20
2018-09-08T21:06:07.060Z,93.40
2018-09-08T21:08:37.568Z,93.30
2018-09-08T21:11:07.701Z,93.40
2018-09-08T21:13:36.838Z,93.30
2018-09-08T21:16:06.139Z,93.20
2018-09-08T21:18:35.388Z,93.20
2018-09-08T21:21:04.534Z,93.10
2018-09-08T21:23:33.741Z,93.00
2018-09-08T21:26:02.979Z,92.90
2018-09-08T21:28:32.234Z,93.20
2018-09-08T21:31:01.517Z,93.00
2018-09-08T21:33:30.724Z,93.00
2018-09-08T21:35:59.995Z,93.10
2018-09-08T21:38:29.184Z,93.10
2018-09-08T21:40:58.322Z,93.20
2018-09-08T21:43:27.684Z,93.50
2018-09-08T21:45:56.852Z,93.30
2018-09-08T21:48:26.007Z,93.40
2018-09-08T21:50:55.421Z,93.40
2018-09-08T21:53:24.832Z,93.40
2018-09-08T21:55:54.011Z,93.50
2018-09-08T21:58:23.303Z,93.60
2018-09-08T22:00:55.958Z,93.60
2018-09-08T22:03:28.019Z,93.50
2018-09-08T22:05:57.577Z,93.60
2018-09-08T22:08:27.270Z,93.70
2018-09-08T22:10:56.701Z,93.60
2018-09-08T22:13:25.912Z,93.80
2018-09-08T22:15:55.475Z,93.80
2018-09-08T22:18:24.532Z,93.60
2018-09-08T22:20:53.735Z,93.50
2018-09-08T22:23:23.155Z,93.70
2018-09-08T22:25:52.381Z,93.90
2018-09-08T22:28:21.752Z,93.90
2018-09-08T22:30:50.988Z,93.90
2018-09-08T22:33:20.201Z,93.90
2018-09-08T22:35:49.831Z,93.90
2018-09-08T22:38:19.136Z,94.30
2018-09-08T22:40:48.513Z,94.50
2018-09-08T22:43:17.721Z,94.20
2018-09-08T22:45:47.047Z,94.20
2018-09-08T22:48:17.130Z,94.20
2018-09-08T22:50:46.426Z,94.30
2018-09-08T22:53:27.535Z,94.40
2018-09-08T22:56:00.555Z,94.50
2018-09-08T22:58:41.115Z,94.50
2018-09-08T23:01:10.488Z,94.40
2018-09-08T23:03:49.583Z,94.50
2018-09-08T23:06:25.874Z,94.50
2018-09-08T23:08:55.064Z,94.70
2018-09-08T23:11:24.275Z,94.70
2018-09-08T23:13:53.600Z,94.80
2018-09-08T23:16:22.944Z,94.70
2018-09-08T23:18:52.062Z,94.80
2018-09-08T23:21:21.204Z,94.70
2018-09-08T23:23:50.487Z,94.70
2018-09-08T23:26:19.848Z,94.80
2018-09-08T23:28:49.132Z,94.70
2018-09-08T23:31:18.273Z,94.70
2018-09-08T23:33:47.372Z,94.70
2018-09-08T23:36:17.193Z,94.60
2018-09-08T23:38:46.366Z,94.60
2018-09-08T23:41:15.938Z,94.60
2018-09-08T23:43:49.854Z,94.80
2018-09-08T23:46:19.048Z,94.90
2018-09-08T23:48:48.222Z,94.90
2018-09-08T23:51:17.473Z,95.00
2018-09-08T23:53:46.700Z,95.00
2018-09-08T23:56:15.928Z,94.90
2018-09-08T23:58:45.192Z,94.90
